sensor_id;sensor_type;location;lat;lon;timestamp;pressure;altitude;pressure_sealevel;temperature;humidity
59789;BME280;47353;51.614;5.530;2023-09-19T00:01:06;100658.38;;;14.32;100.00
59789;BME280;47353;51.614;5.530;2023-09-19T00:03:34;100661.88;;;14.24;100.00
59789;BME280;47353;51.614;5.530;2023-09-19T00:06:00;100657.94;;;14.25;100.00
59789;BME280;47353;51.614;5.530;2023-09-19T00:08:26;100672.16;;;14.24;100.00
59789;BME280;47353;51.614;5.530;2023-09-19T00:10:54;100666.59;;;14.24;100.00
59789;BME280;47353;51.614;5.530;2023-09-19T00:13:20;100674.41;;;14.22;100.00
59789;BME280;47353;51.614;5.530;2023-09-19T00:15:47;100676.97;;;14.18;100.00
59789;BME280;47353;51.614;5.530;2023-09-19T00:18:19;100685.63;;;14.17;100.00
59789;BME280;47353;51.614;5.530;2023-09-19T00:20:49;100686.25;;;14.14;100.00
59789;BME280;47353;51.614;5.530;2023-09-19T00:23:16;100684.38;;;14.09;100.00
59789;BME280;47353;51.614;5.530;2023-09-19T00:25:42;100678.47;;;13.97;100.00
59789;BME280;47353;51.614;5.530;2023-09-19T00:28:07;100688.69;;;14.02;100.00
59789;BME280;47353;51.614;5.530;2023-09-19T00:30:34;100700.31;;;14.04;100.00
59789;BME280;47353;51.614;5.530;2023-09-19T00:32:59;100697.75;;;14.07;100.00
59789;BME280;47353;51.614;5.530;2023-09-19T00:35:26;100699.19;;;14.05;100.00
59789;BME280;47353;51.614;5.530;2023-09-19T00:37:53;100703.69;;;14.01;100.00
59789;BME280;47353;51.614;5.530;2023-09-19T00:40:19;100707.31;;;14.01;100.00
59789;BME280;47353;51.614;5.530;2023-09-19T00:42:46;100704.22;;;14.03;100.00
59789;BME280;47353;51.614;5.530;2023-09-19T00:45:12;100706.78;;;13.99;100.00
59789;BME280;47353;51.614;5.530;2023-09-19T00:47:40;100709.06;;;13.97;100.00
59789;BME280;47353;51.614;5.530;2023-09-19T00:50:08;100716.03;;;13.95;100.00
59789;BME280;47353;51.614;5.530;2023-09-19T00:52:34;100723.56;;;13.94;100.00
59789;BME280;47353;51.614;5.530;2023-09-19T00:55:05;100715.50;;;13.93;100.00
59789;BME280;47353;51.614;5.530;2023-09-19T00:57:32;100719.72;;;13.90;100.00
59789;BME280;47353;51.614;5.530;2023-09-19T00:59:58;100725.84;;;13.92;100.00
59789;BME280;47353;51.614;5.530;2023-09-19T01:02:25;100735.28;;;13.91;100.00
59789;BME280;47353;51.614;5.530;2023-09-19T01:04:54;100733.09;;;13.88;100.00
59789;BME280;47353;51.614;5.530;2023-09-19T01:07:20;100734.31;;;13.82;100.00
59789;BME280;47353;51.614;5.530;2023-09-19T01:09:48;100737.94;;;13.83;100.00
59789;BME280;47353;51.614;5.530;2023-09-19T01:12:16;100734.97;;;13.74;100.00
59789;BME280;47353;51.614;5.530;2023-09-19T01:14:59;100740.56;;;13.74;100.00
59789;BME280;47353;51.614;5.530;2023-09-19T01:17:34;100740.56;;;13.74;100.00
59789;BME280;47353;51.614;5.530;2023-09-19T01:20:21;100748.31;;;13.77;100.00
59789;BME280;47353;51.614;5.530;2023-09-19T01:23:07;100746.13;;;13.74;100.00
59789;BME280;47353;51.614;5.530;2023-09-19T01:31:11;100749.91;;;13.65;100.00
59789;BME280;47353;51.614;5.530;2023-09-19T01:33:58;100755.16;;;13.66;100.00
59789;BME280;47353;51.614;5.530;2023-09-19T01:36:32;100766.88;;;13.63;100.00
59789;BME280;47353;51.614;5.530;2023-09-19T01:39:06;100762.50;;;13.57;100.00
59789;BME280;47353;51.614;5.530;2023-09-19T01:41:50;100765.81;;;13.59;100.00
59789;BME280;47353;51.614;5.530;2023-09-19T01:44:25;100768.81;;;13.63;100.00
59789;BME280;47353;51.614;5.530;2023-09-19T01:46:58;100769.19;;;13.56;100.00
59789;BME280;47353;51.614;5.530;2023-09-19T01:49:35;100767.78;;;13.59;100.00
59789;BME280;47353;51.614;5.530;2023-09-19T01:52:10;100768.94;;;13.53;100.00
59789;BME280;47353;51.614;5.530;2023-09-19T01:54:52;100777.81;;;13.55;100.00
59789;BME280;47353;51.614;5.530;2023-09-19T01:57:27;100777.06;;;13.49;100.00
59789;BME280;47353;51.614;5.530;2023-09-19T02:00:01;100770.09;;;13.52;100.00
59789;BME280;47353;51.614;5.530;2023-09-19T02:02:34;100765.41;;;13.47;100.00
59789;BME280;47353;51.614;5.530;2023-09-19T02:05:00;100766.00;;;13.44;100.00
59789;BME280;47353;51.614;5.530;2023-09-19T02:07:25;100766.91;;;13.39;100.00
59789;BME280;47353;51.614;5.530;2023-09-19T02:09:52;100774.72;;;13.37;100.00
59789;BME280;47353;51.614;5.530;2023-09-19T02:12:17;100762.84;;;13.32;100.00
59789;BME280;47353;51.614;5.530;2023-09-19T02:14:43;100760.84;;;13.32;100.00
59789;BME280;47353;51.614;5.530;2023-09-19T02:17:08;100765.06;;;13.30;100.00
59789;BME280;47353;51.614;5.530;2023-09-19T02:19:36;100770.03;;;13.33;100.00
59789;BME280;47353;51.614;5.530;2023-09-19T02:22:04;100769.50;;;13.31;100.00
59789;BME280;47353;51.614;5.530;2023-09-19T02:24:33;100763.94;;;13.31;99.23
59789;BME280;47353;51.614;5.530;2023-09-19T02:26:58;100764.25;;;13.29;99.65
59789;BME280;47353;51.614;5.530;2023-09-19T02:29:28;100769.19;;;13.32;99.89
59789;BME280;47353;51.614;5.530;2023-09-19T02:31:55;100767.59;;;13.26;99.82
59789;BME280;47353;51.614;5.530;2023-09-19T02:34:21;100783.25;;;13.22;99.92
59789;BME280;47353;51.614;5.530;2023-09-19T02:36:47;100780.81;;;13.16;99.88
59789;BME280;47353;51.614;5.530;2023-09-19T02:39:12;100779.91;;;13.20;99.83
59789;BME280;47353;51.614;5.530;2023-09-19T02:41:38;100788.59;;;13.14;99.85
59789;BME280;47353;51.614;5.530;2023-09-19T02:44:03;100785.31;;;13.12;100.00
59789;BME280;47353;51.614;5.530;2023-09-19T02:46:32;100791.47;;;13.09;99.98
59789;BME280;47353;51.614;5.530;2023-09-19T02:48:58;100791.22;;;13.05;100.00
59789;BME280;47353;51.614;5.530;2023-09-19T02:51:23;100787.66;;;13.00;100.00
59789;BME280;47353;51.614;5.530;2023-09-19T02:53:50;100788.75;;;12.99;100.00
59789;BME280;47353;51.614;5.530;2023-09-19T02:56:18;100792.66;;;12.98;100.00
59789;BME280;47353;51.614;5.530;2023-09-19T02:58:43;100791.06;;;12.92;100.00
59789;BME280;47353;51.614;5.530;2023-09-19T03:01:09;100794.41;;;12.89;100.00
59789;BME280;47353;51.614;5.530;2023-09-19T03:03:37;100793.88;;;12.87;100.00
59789;BME280;47353;51.614;5.530;2023-09-19T03:06:05;100796.41;;;12.83;100.00
59789;BME280;47353;51.614;5.530;2023-09-19T03:08:31;100796.19;;;12.80;100.00
59789;BME280;47353;51.614;5.530;2023-09-19T03:11:03;100786.72;;;12.81;99.62
59789;BME280;47353;51.614;5.530;2023-09-19T03:13:31;100791.97;;;12.82;99.58
59789;BME280;47353;51.614;5.530;2023-09-19T03:15:57;100791.22;;;12.77;99.77
59789;BME280;47353;51.614;5.530;2023-09-19T03:18:26;100790.34;;;12.81;98.84
59789;BME280;47353;51.614;5.530;2023-09-19T03:20:54;100799.19;;;12.83;98.51
59789;BME280;47353;51.614;5.530;2023-09-19T03:23:20;100799.00;;;12.75;98.72
59789;BME280;47353;51.614;5.530;2023-09-19T03:25:45;100800.41;;;12.72;99.22
59789;BME280;47353;51.614;5.530;2023-09-19T03:28:11;100795.41;;;12.69;98.84
59789;BME280;47353;51.614;5.530;2023-09-19T03:30:37;100800.69;;;12.71;98.05
59789;BME280;47353;51.614;5.530;2023-09-19T03:33:03;100797.41;;;12.69;98.01
59789;BME280;47353;51.614;5.530;2023-09-19T03:35:30;100798.19;;;12.69;97.79
59789;BME280;47353;51.614;5.530;2023-09-19T03:37:55;100802.66;;;12.70;97.76
59789;BME280;47353;51.614;5.530;2023-09-19T03:40:21;100788.22;;;12.68;97.83
59789;BME280;47353;51.614;5.530;2023-09-19T03:42:48;100789.66;;;12.66;97.70
59789;BME280;47353;51.614;5.530;2023-09-19T03:45:14;100786.91;;;12.61;97.42
59789;BME280;47353;51.614;5.530;2023-09-19T03:47:41;100783.50;;;12.69;97.03
59789;BME280;47353;51.614;5.530;2023-09-19T03:50:07;100776.28;;;12.68;97.84
59789;BME280;47353;51.614;5.530;2023-09-19T03:52:45;100777.06;;;12.73;96.67
59789;BME280;47353;51.614;5.530;2023-09-19T03:55:10;100777.31;;;12.77;95.89
59789;BME280;47353;51.614;5.530;2023-09-19T03:57:36;100773.97;;;12.80;96.75
59789;BME280;47353;51.614;5.530;2023-09-19T04:00:03;100769.50;;;12.79;96.67
59789;BME280;47353;51.614;5.530;2023-09-19T04:02:30;100775.91;;;12.79;96.89
59789;BME280;47353;51.614;5.530;2023-09-19T04:04:58;100776.16;;;12.83;96.79
59789;BME280;47353;51.614;5.530;2023-09-19T04:07:24;100773.06;;;12.84;96.58
59789;BME280;47353;51.614;5.530;2023-09-19T04:09:51;100776.97;;;12.83;96.60
59789;BME280;47353;51.614;5.530;2023-09-19T04:12:18;100771.94;;;12.85;97.53
59789;BME280;47353;51.614;5.530;2023-09-19T04:14:44;100775.28;;;12.87;97.79
59789;BME280;47353;51.614;5.530;2023-09-19T04:17:10;100775.03;;;12.84;98.57
59789;BME280;47353;51.614;5.530;2023-09-19T04:19:36;100785.00;;;12.85;98.43
59789;BME280;47353;51.614;5.530;2023-09-19T04:22:02;100793.00;;;12.91;97.71
59789;BME280;47353;51.614;5.530;2023-09-19T04:24:28;100791.06;;;12.92;98.65
59789;BME280;47353;51.614;5.530;2023-09-19T04:26:54;100801.56;;;12.95;98.21
59789;BME280;47353;51.614;5.530;2023-09-19T04:29:19;100809.63;;;12.96;98.74
59789;BME280;47353;51.614;5.530;2023-09-19T04:31:45;100809.91;;;12.95;98.80
59789;BME280;47353;51.614;5.530;2023-09-19T04:34:11;100815.19;;;12.96;99.35
59789;BME280;47353;51.614;5.530;2023-09-19T04:36:42;100823.81;;;12.95;99.33
59789;BME280;47353;51.614;5.530;2023-09-19T04:39:08;100819.31;;;12.99;99.35
59789;BME280;47353;51.614;5.530;2023-09-19T04:41:36;100823.50;;;13.01;99.20
59789;BME280;47353;51.614;5.530;2023-09-19T04:44:04;100845.91;;;13.10;99.13
59789;BME280;47353;51.614;5.530;2023-09-19T04:46:30;100843.09;;;13.15;99.26
59789;BME280;47353;51.614;5.530;2023-09-19T04:48:55;100848.06;;;13.18;98.53
59789;BME280;47353;51.614;5.530;2023-09-19T04:51:21;100844.72;;;13.16;99.42
59789;BME280;47353;51.614;5.530;2023-09-19T04:53:46;100848.81;;;13.23;99.33
59789;BME280;47353;51.614;5.530;2023-09-19T04:56:13;100852.44;;;13.24;99.67
59789;BME280;47353;51.614;5.530;2023-09-19T04:58:38;100846.56;;;13.25;98.94
59789;BME280;47353;51.614;5.530;2023-09-19T05:01:04;100845.69;;;13.30;99.32
59789;BME280;47353;51.614;5.530;2023-09-19T05:03:29;100856.81;;;13.30;99.27
59789;BME280;47353;51.614;5.530;2023-09-19T05:05:55;100851.00;;;13.26;99.17
59789;BME280;47353;51.614;5.530;2023-09-19T05:08:20;100845.53;;;13.21;99.93
59789;BME280;47353;51.614;5.530;2023-09-19T05:10:47;100855.50;;;13.22;99.73
59789;BME280;47353;51.614;5.530;2023-09-19T05:13:14;100857.44;;;13.22;99.96
59789;BME280;47353;51.614;5.530;2023-09-19T05:15:39;100845.81;;;13.20;99.78
59789;BME280;47353;51.614;5.530;2023-09-19T05:18:05;100863.31;;;13.20;100.00
59789;BME280;47353;51.614;5.530;2023-09-19T05:20:31;100866.16;;;13.15;100.00
59789;BME280;47353;51.614;5.530;2023-09-19T05:23:02;100863.88;;;13.17;100.00
59789;BME280;47353;51.614;5.530;2023-09-19T05:25:31;100854.44;;;13.18;100.00
59789;BME280;47353;51.614;5.530;2023-09-19T05:28:00;100865.31;;;13.15;100.00
59789;BME280;47353;51.614;5.530;2023-09-19T05:30:28;100865.66;;;13.08;100.00
59789;BME280;47353;51.614;5.530;2023-09-19T05:32:54;100868.38;;;13.13;100.00
59789;BME280;47353;51.614;5.530;2023-09-19T05:35:21;100872.81;;;13.14;100.00
59789;BME280;47353;51.614;5.530;2023-09-19T05:37:48;100867.50;;;13.18;100.00
59789;BME280;47353;51.614;5.530;2023-09-19T05:40:16;100863.00;;;13.22;100.00
59789;BME280;47353;51.614;5.530;2023-09-19T05:42:42;100879.69;;;13.22;100.00
59789;BME280;47353;51.614;5.530;2023-09-19T05:45:09;100874.97;;;13.22;100.00
59789;BME280;47353;51.614;5.530;2023-09-19T05:47:37;100876.59;;;13.23;100.00
59789;BME280;47353;51.614;5.530;2023-09-19T05:53:06;100875.22;;;13.26;100.00
59789;BME280;47353;51.614;5.530;2023-09-19T05:55:32;100864.69;;;13.23;100.00
59789;BME280;47353;51.614;5.530;2023-09-19T05:57:58;100863.25;;;13.25;100.00
59789;BME280;47353;51.614;5.530;2023-09-19T06:00:25;100860.44;;;13.30;100.00
59789;BME280;47353;51.614;5.530;2023-09-19T06:02:57;100863.16;;;13.35;100.00
59789;BME280;47353;51.614;5.530;2023-09-19T06:05:24;100863.66;;;13.37;100.00
59789;BME280;47353;51.614;5.530;2023-09-19T06:07:50;100872.00;;;13.37;100.00
59789;BME280;47353;51.614;5.530;2023-09-19T06:10:17;100874.00;;;13.37;100.00
59789;BME280;47353;51.614;5.530;2023-09-19T06:12:43;100867.47;;;13.47;100.00
59789;BME280;47353;51.614;5.530;2023-09-19T06:15:15;100877.41;;;13.53;100.00
59789;BME280;47353;51.614;5.530;2023-09-19T06:17:51;100875.81;;;13.47;100.00
59789;BME280;47353;51.614;5.530;2023-09-19T06:20:16;100865.22;;;13.49;100.00
59789;BME280;47353;51.614;5.530;2023-09-19T06:22:43;100876.59;;;13.52;100.00
59789;BME280;47353;51.614;5.530;2023-09-19T06:25:10;100866.53;;;13.56;100.00
59789;BME280;47353;51.614;5.530;2023-09-19T06:27:40;100875.94;;;13.60;100.00
59789;BME280;47353;51.614;5.530;2023-09-19T06:30:10;100872.03;;;13.61;100.00
59789;BME280;47353;51.614;5.530;2023-09-19T06:32:40;100890.03;;;13.69;100.00
59789;BME280;47353;51.614;5.530;2023-09-19T06:35:10;100894.34;;;13.80;100.00
59789;BME280;47353;51.614;5.530;2023-09-19T06:37:37;100901.34;;;13.77;100.00
59789;BME280;47353;51.614;5.530;2023-09-19T06:42:51;100910.91;;;13.90;100.00
59789;BME280;47353;51.614;5.530;2023-09-19T06:45:18;100903.13;;;13.87;100.00
59789;BME280;47353;51.614;5.530;2023-09-19T06:47:44;100914.22;;;13.92;100.00
59789;BME280;47353;51.614;5.530;2023-09-19T06:50:11;100912.56;;;13.91;100.00
59789;BME280;47353;51.614;5.530;2023-09-19T06:52:42;100920.78;;;14.01;100.00
59789;BME280;47353;51.614;5.530;2023-09-19T06:55:08;100909.94;;;13.99;100.00
59789;BME280;47353;51.614;5.530;2023-09-19T06:57:35;100908.44;;;14.07;100.00
59789;BME280;47353;51.614;5.530;2023-09-19T07:00:01;100904.16;;;14.14;100.00
59789;BME280;47353;51.614;5.530;2023-09-19T07:02:27;100902.16;;;14.20;100.00
59789;BME280;47353;51.614;5.530;2023-09-19T07:04:52;100896.28;;;14.21;100.00
59789;BME280;47353;51.614;5.530;2023-09-19T07:07:17;100899.38;;;14.20;100.00
59789;BME280;47353;51.614;5.530;2023-09-19T07:09:43;100906.03;;;14.24;100.00
59789;BME280;47353;51.614;5.530;2023-09-19T07:12:08;100911.47;;;14.34;100.00
59789;BME280;47353;51.614;5.530;2023-09-19T07:14:34;100910.63;;;14.33;100.00
59789;BME280;47353;51.614;5.530;2023-09-19T07:16:59;100905.00;;;14.38;100.00
59789;BME280;47353;51.614;5.530;2023-09-19T07:19:29;100905.44;;;14.45;100.00
59789;BME280;47353;51.614;5.530;2023-09-19T07:21:56;100917.09;;;14.47;100.00
59789;BME280;47353;51.614;5.530;2023-09-19T07:24:24;100913.72;;;14.50;100.00
59789;BME280;47353;51.614;5.530;2023-09-19T07:26:52;100919.97;;;14.61;99.64
59789;BME280;47353;51.614;5.530;2023-09-19T07:29:18;100903.91;;;14.71;100.00
59789;BME280;47353;51.614;5.530;2023-09-19T07:31:43;100915.53;;;14.78;99.22
59789;BME280;47353;51.614;5.530;2023-09-19T07:34:09;100902.47;;;14.92;98.61
59789;BME280;47353;51.614;5.530;2023-09-19T07:36:35;100910.03;;;15.05;98.48
59789;BME280;47353;51.614;5.530;2023-09-19T07:39:02;100913.38;;;15.21;97.27
59789;BME280;47353;51.614;5.530;2023-09-19T07:41:32;100918.19;;;15.34;96.55
59789;BME280;47353;51.614;5.530;2023-09-19T07:43:57;100922.28;;;15.55;94.98
59789;BME280;47353;51.614;5.530;2023-09-19T07:46:23;100914.22;;;15.67;94.43
59789;BME280;47353;51.614;5.530;2023-09-19T07:48:49;100913.41;;;15.80;93.54
59789;BME280;47353;51.614;5.530;2023-09-19T07:51:15;100917.75;;;16.00;92.76
59789;BME280;47353;51.614;5.530;2023-09-19T07:53:41;100916.47;;;16.19;91.74
59789;BME280;47353;51.614;5.530;2023-09-19T07:56:08;100916.53;;;16.55;90.92
59789;BME280;47353;51.614;5.530;2023-09-19T07:58:35;100916.22;;;16.70;89.15
59789;BME280;47353;51.614;5.530;2023-09-19T08:01:08;100913.38;;;17.06;86.65
59789;BME280;47353;51.614;5.530;2023-09-19T08:03:39;100926.00;;;17.03;85.37
59789;BME280;47353;51.614;5.530;2023-09-19T08:06:09;100928.16;;;17.28;85.13
59789;BME280;47353;51.614;5.530;2023-09-19T08:08:35;100930.56;;;17.43;84.23
59789;BME280;47353;51.614;5.530;2023-09-19T08:11:05;100937.06;;;17.52;82.38
59789;BME280;47353;51.614;5.530;2023-09-19T08:13:37;100943.53;;;17.61;80.90
59789;BME280;47353;51.614;5.530;2023-09-19T08:16:06;100942.41;;;17.62;81.09
59789;BME280;47353;51.614;5.530;2023-09-19T08:18:31;100934.63;;;17.90;80.30
59789;BME280;47353;51.614;5.530;2023-09-19T08:20:57;100934.03;;;18.10;78.69
59789;BME280;47353;51.614;5.530;2023-09-19T08:23:24;100934.03;;;18.10;77.17
59789;BME280;47353;51.614;5.530;2023-09-19T08:25:49;100931.09;;;18.15;77.52
59789;BME280;47353;51.614;5.530;2023-09-19T08:28:15;100921.34;;;18.12;77.81
59789;BME280;47353;51.614;5.530;2023-09-19T08:30:45;100927.09;;;18.64;76.98
59789;BME280;47353;51.614;5.530;2023-09-19T08:33:11;100929.59;;;18.91;75.07
59789;BME280;47353;51.614;5.530;2023-09-19T08:35:36;100933.84;;;19.22;73.79
59789;BME280;47353;51.614;5.530;2023-09-19T08:38:04;100932.84;;;19.52;73.56
59789;BME280;47353;51.614;5.530;2023-09-19T08:40:32;100928.06;;;19.44;70.93
59789;BME280;47353;51.614;5.530;2023-09-19T08:42:59;100947.00;;;20.11;71.49
59789;BME280;47353;51.614;5.530;2023-09-19T08:45:25;100915.16;;;19.98;66.96
59789;BME280;47353;51.614;5.530;2023-09-19T08:48:25;100947.91;;;19.94;68.54
59789;BME280;47353;51.614;5.530;2023-09-19T08:51:00;100941.22;;;19.61;69.88
59789;BME280;47353;51.614;5.530;2023-09-19T08:56:18;100937.91;;;20.05;66.03
59789;BME280;47353;51.614;5.530;2023-09-19T08:58:46;100938.19;;;20.50;65.36
59789;BME280;47353;51.614;5.530;2023-09-19T09:01:16;100937.59;;;20.85;64.31
59789;BME280;47353;51.614;5.530;2023-09-19T09:03:52;100940.75;;;20.63;63.80
59789;BME280;47353;51.614;5.530;2023-09-19T09:06:19;100947.50;;;21.12;64.28
59789;BME280;47353;51.614;5.530;2023-09-19T09:08:46;100966.00;;;21.54;58.63
59789;BME280;47353;51.614;5.530;2023-09-19T09:11:13;100941.47;;;21.22;60.76
59789;BME280;47353;51.614;5.530;2023-09-19T09:13:38;100932.94;;;21.30;59.63
59789;BME280;47353;51.614;5.530;2023-09-19T09:16:07;100945.00;;;22.20;58.77
59789;BME280;47353;51.614;5.530;2023-09-19T09:18:33;100946.53;;;22.30;59.07
59789;BME280;47353;51.614;5.530;2023-09-19T09:20:58;100952.47;;;21.80;58.46
59789;BME280;47353;51.614;5.530;2023-09-19T09:23:23;100938.31;;;22.61;56.12
59789;BME280;47353;51.614;5.530;2023-09-19T09:25:55;100938.31;;;22.01;57.12
59789;BME280;47353;51.614;5.530;2023-09-19T09:28:23;100928.53;;;21.98;56.88
59789;BME280;47353;51.614;5.530;2023-09-19T09:30:49;100943.13;;;22.00;59.61
59789;BME280;47353;51.614;5.530;2023-09-19T09:33:16;100934.53;;;22.81;53.95
59789;BME280;47353;51.614;5.530;2023-09-19T09:35:56;100918.91;;;22.35;56.56
59789;BME280;47353;51.614;5.530;2023-09-19T09:38:43;100918.53;;;22.73;55.32
59789;BME280;47353;51.614;5.530;2023-09-19T09:41:10;100921.91;;;23.30;52.70
59789;BME280;47353;51.614;5.530;2023-09-19T09:43:40;100909.03;;;23.91;51.41
59789;BME280;47353;51.614;5.530;2023-09-19T09:49:03;100913.53;;;23.22;52.75
59789;BME280;47353;51.614;5.530;2023-09-19T09:51:58;100914.13;;;23.55;53.55
59789;BME280;47353;51.614;5.530;2023-09-19T09:54:25;100915.97;;;23.94;50.98
59789;BME280;47353;51.614;5.530;2023-09-19T09:57:03;100935.66;;;23.32;51.45
59789;BME280;47353;51.614;5.530;2023-09-19T10:00:01;100935.22;;;22.78;53.73
59789;BME280;47353;51.614;5.530;2023-09-19T10:02:36;100922.31;;;22.05;52.52
59789;BME280;47353;51.614;5.530;2023-09-19T10:05:14;100913.50;;;21.94;54.24
59789;BME280;47353;51.614;5.530;2023-09-19T10:07:50;100920.88;;;21.75;55.76
59789;BME280;47353;51.614;5.530;2023-09-19T10:10:37;100920.47;;;22.21;55.20
59789;BME280;47353;51.614;5.530;2023-09-19T10:13:25;100924.88;;;21.98;55.50
59789;BME280;47353;51.614;5.530;2023-09-19T10:15:53;100939.59;;;21.26;57.14
59789;BME280;47353;51.614;5.530;2023-09-19T10:18:24;100919.00;;;21.79;56.10
59789;BME280;47353;51.614;5.530;2023-09-19T10:20:51;100919.97;;;21.50;55.41
59789;BME280;47353;51.614;5.530;2023-09-19T10:23:18;100920.66;;;21.80;54.84
59789;BME280;47353;51.614;5.530;2023-09-19T10:25:51;100912.72;;;21.73;57.12
59789;BME280;47353;51.614;5.530;2023-09-19T10:28:18;100904.91;;;21.34;56.56
59789;BME280;47353;51.614;5.530;2023-09-19T10:30:48;100915.38;;;21.78;56.46
59789;BME280;47353;51.614;5.530;2023-09-19T10:33:17;100904.94;;;22.03;54.66
59789;BME280;47353;51.614;5.530;2023-09-19T10:35:47;100909.72;;;22.50;54.65
59789;BME280;47353;51.614;5.530;2023-09-19T10:38:17;100915.59;;;23.80;49.50
59789;BME280;47353;51.614;5.530;2023-09-19T10:40:50;100912.28;;;24.55;46.93
59789;BME280;47353;51.614;5.530;2023-09-19T10:43:18;100914.19;;;23.43;48.08
59789;BME280;47353;51.614;5.530;2023-09-19T10:48:18;100914.19;;;23.03;52.40
59789;BME280;47353;51.614;5.530;2023-09-19T10:51:10;100898.88;;;22.88;50.49
59789;BME280;47353;51.614;5.530;2023-09-19T10:56:23;100903.28;;;23.72;48.69
59789;BME280;47353;51.614;5.530;2023-09-19T10:59:05;100894.09;;;24.06;48.52
59789;BME280;47353;51.614;5.530;2023-09-19T11:01:50;100901.47;;;24.26;45.88
59789;BME280;47353;51.614;5.530;2023-09-19T11:04:34;100892.09;;;24.07;48.09
59789;BME280;47353;51.614;5.530;2023-09-19T11:07:13;100895.28;;;24.21;45.25
59789;BME280;47353;51.614;5.530;2023-09-19T11:14:57;100861.38;;;24.75;44.48
59789;BME280;47353;51.614;5.530;2023-09-19T11:17:33;100871.25;;;24.65;44.43
59789;BME280;47353;51.614;5.530;2023-09-19T11:30:35;100850.31;;;26.95;38.51
59789;BME280;47353;51.614;5.530;2023-09-19T11:49:16;100825.50;;;25.20;41.09
59789;BME280;47353;51.614;5.530;2023-09-19T11:51:45;100824.59;;;24.94;42.26
59789;BME280;47353;51.614;5.530;2023-09-19T11:54:14;100814.06;;;24.94;42.72
59789;BME280;47353;51.614;5.530;2023-09-19T11:56:52;100799.94;;;24.75;42.76
59789;BME280;47353;51.614;5.530;2023-09-19T11:59:21;100792.50;;;25.09;41.72
59789;BME280;47353;51.614;5.530;2023-09-19T12:01:52;100803.41;;;25.71;41.26
59789;BME280;47353;51.614;5.530;2023-09-19T12:04:33;100805.59;;;25.36;41.12
59789;BME280;47353;51.614;5.530;2023-09-19T12:07:03;100807.28;;;25.85;41.38
59789;BME280;47353;51.614;5.530;2023-09-19T12:09:29;100809.13;;;26.23;40.81
59789;BME280;47353;51.614;5.530;2023-09-19T12:11:55;100813.25;;;25.80;38.92
59789;BME280;47353;51.614;5.530;2023-09-19T12:14:24;100792.88;;;25.49;40.46
59789;BME280;47353;51.614;5.530;2023-09-19T12:16:56;100811.66;;;24.58;41.83
59789;BME280;47353;51.614;5.530;2023-09-19T12:19:23;100815.38;;;24.08;43.07
59789;BME280;47353;51.614;5.530;2023-09-19T12:22:14;100820.75;;;23.36;46.33
59789;BME280;47353;51.614;5.530;2023-09-19T12:24:40;100823.34;;;23.72;45.05
59789;BME280;47353;51.614;5.530;2023-09-19T12:27:09;100823.22;;;23.10;46.24
59789;BME280;47353;51.614;5.530;2023-09-19T12:29:46;100821.69;;;22.84;47.19
59789;BME280;47353;51.614;5.530;2023-09-19T12:32:13;100817.03;;;23.04;47.63
59789;BME280;47353;51.614;5.530;2023-09-19T12:34:42;100809.63;;;22.99;46.66
59789;BME280;47353;51.614;5.530;2023-09-19T12:37:14;100824.41;;;22.41;52.06
59789;BME280;47353;51.614;5.530;2023-09-19T12:39:51;100812.97;;;21.86;50.96
59789;BME280;47353;51.614;5.530;2023-09-19T12:42:26;100833.25;;;21.56;53.04
59789;BME280;47353;51.614;5.530;2023-09-19T12:44:58;100819.88;;;21.40;54.57
59789;BME280;47353;51.614;5.530;2023-09-19T12:47:27;100814.44;;;21.23;54.15
59789;BME280;47353;51.614;5.530;2023-09-19T12:50:09;100819.31;;;21.95;53.15
59789;BME280;47353;51.614;5.530;2023-09-19T12:52:50;100812.84;;;22.07;51.38
59789;BME280;47353;51.614;5.530;2023-09-19T12:55:23;100814.25;;;22.13;52.34
59789;BME280;47353;51.614;5.530;2023-09-19T12:57:59;100814.56;;;22.35;51.87
59789;BME280;47353;51.614;5.530;2023-09-19T13:00:40;100814.16;;;22.49;51.42
59789;BME280;47353;51.614;5.530;2023-09-19T13:03:32;100824.84;;;24.16;47.92
59789;BME280;47353;51.614;5.530;2023-09-19T13:06:01;100815.94;;;24.68;45.33
59789;BME280;47353;51.614;5.530;2023-09-19T13:08:32;100813.66;;;24.04;47.22
59789;BME280;47353;51.614;5.530;2023-09-19T13:11:11;100806.75;;;23.55;48.02
59789;BME280;47353;51.614;5.530;2023-09-19T13:13:46;100815.63;;;22.98;49.66
59789;BME280;47353;51.614;5.530;2023-09-19T13:16:20;100807.44;;;22.65;50.60
59789;BME280;47353;51.614;5.530;2023-09-19T13:18:53;100809.88;;;22.27;51.24
59789;BME280;47353;51.614;5.530;2023-09-19T13:21:39;100794.19;;;22.02;51.99
59789;BME280;47353;51.614;5.530;2023-09-19T13:26:44;100809.53;;;21.57;52.80
59789;BME280;47353;51.614;5.530;2023-09-19T13:29:09;100812.13;;;21.37;54.96
59789;BME280;47353;51.614;5.530;2023-09-19T13:31:35;100817.31;;;21.15;56.57
59789;BME280;47353;51.614;5.530;2023-09-19T13:34:03;100816.22;;;20.95;55.27
59789;BME280;47353;51.614;5.530;2023-09-19T13:36:28;100815.72;;;20.73;58.26
59789;BME280;47353;51.614;5.530;2023-09-19T13:38:54;100810.06;;;20.93;56.85
59789;BME280;47353;51.614;5.530;2023-09-19T13:41:20;100811.47;;;21.08;56.64
59789;BME280;47353;51.614;5.530;2023-09-19T13:43:46;100809.00;;;21.06;56.63
59789;BME280;47353;51.614;5.530;2023-09-19T13:46:14;100814.66;;;21.30;56.89
59789;BME280;47353;51.614;5.530;2023-09-19T13:48:41;100814.44;;;21.35;56.47
59789;BME280;47353;51.614;5.530;2023-09-19T13:51:06;100821.84;;;21.52;56.23
59789;BME280;47353;51.614;5.530;2023-09-19T13:53:32;100820.94;;;21.48;54.73